Time;durP1;ratioP1;P1;durP2;ratioP2;P2;SDS_P1;SDS_P2;PMS_P1;PMS_P2;Temp;Humidity;BMP_temperature;BMP_pressure;BME280_temperature;BME280_humidity;BME280_pressure;Samples;Min_cycle;Max_cycle;Signal;HPM_P1;HPM_P2
2022/10/18 00:00:22;;;;;;;;;;;18.00;99.90;;;;;;5032224;28;20852;-63
2022/10/18 00:02:51;;;;;;;;;;;18.00;99.90;;;;;;5032076;28;19971;-62
2022/10/18 00:05:19;;;;;;;;;;;17.90;99.90;;;;;;5038832;28;19973;-63
2022/10/18 00:07:47;;;;;;;;;;;17.80;99.90;;;;;;5051765;28;19971;-62
2022/10/18 00:10:15;;;;;;;;;;;17.80;99.90;;;;;;5051541;28;19967;-63
2022/10/18 00:12:43;;;;;;;;;;;17.70;99.90;;;;;;5051729;28;20006;-62
2022/10/18 00:15:11;;;;;;;;;;;17.70;99.90;;;;;;5052372;28;19967;-62
2022/10/18 00:17:39;;;;;;;;;;;17.70;99.90;;;;;;5052522;28;20010;-61
2022/10/18 00:20:09;;;;;;;;;;;17.80;99.90;;;;;;5054029;28;19979;-62
2022/10/18 00:22:37;;;;;;;;;;;17.80;99.90;;;;;;5050057;28;19970;-61
2022/10/18 00:25:05;;;;;;;;;;;17.80;99.90;;;;;;5051878;28;19967;-62
2022/10/18 00:27:33;;;;;;;;;;;17.80;99.90;;;;;;5052002;28;19982;-62
2022/10/18 00:30:01;;;;;;;;;;;17.70;99.90;;;;;;5051615;28;19978;-63
2022/10/18 00:32:29;;;;;;;;;;;17.70;99.90;;;;;;5051207;28;19967;-63
2022/10/18 00:34:58;;;;;;;;;;;17.70;99.90;;;;;;5051534;28;19974;-63
2022/10/18 00:37:27;;;;;;;;;;;17.80;99.90;;;;;;5051712;28;20554;-63
2022/10/18 00:39:55;;;;;;;;;;;17.70;99.90;;;;;;5050592;28;19967;-63
2022/10/18 00:42:24;;;;;;;;;;;17.70;99.90;;;;;;5051640;28;20077;-62
2022/10/18 00:45:00;;;;;;;;;;;17.60;99.90;;;;;;5051572;28;19967;-62
2022/10/18 00:47:28;;;;;;;;;;;17.60;99.90;;;;;;5053163;28;20343;-63
2022/10/18 00:49:57;;;;;;;;;;;17.50;99.90;;;;;;5055404;28;20431;-63
2022/10/18 00:52:28;;;;;;;;;;;17.60;99.90;;;;;;5048044;28;20058;-63
2022/10/18 00:54:57;;;;;;;;;;;17.60;99.90;;;;;;5034692;28;19967;-63
2022/10/18 00:57:25;;;;;;;;;;;17.60;99.90;;;;;;5035251;28;19969;-63
2022/10/18 00:59:53;;;;;;;;;;;17.60;99.90;;;;;;5034371;28;20460;-63
2022/10/18 01:02:21;;;;;;;;;;;17.70;99.90;;;;;;5034419;28;19967;-63
2022/10/18 01:04:49;;;;;;;;;;;17.70;99.90;;;;;;5034502;28;20066;-63
2022/10/18 01:07:20;;;;;;;;;;;17.70;99.90;;;;;;5034457;28;20444;-63
2022/10/18 01:09:53;;;;;;;;;;;17.70;99.90;;;;;;5034246;28;20069;-63
2022/10/18 01:12:25;;;;;;;;;;;17.80;99.90;;;;;;5034275;28;19974;-63
2022/10/18 01:14:57;;;;;;;;;;;17.80;99.90;;;;;;5034312;28;20025;-63
2022/10/18 01:17:28;;;;;;;;;;;17.80;99.90;;;;;;5034584;28;19982;-63
2022/10/18 01:20:11;;;;;;;;;;;17.80;99.90;;;;;;5034127;28;19971;-63
2022/10/18 01:22:43;;;;;;;;;;;17.80;99.90;;;;;;5033519;28;19966;-62
2022/10/18 01:25:18;;;;;;;;;;;17.80;99.90;;;;;;5034264;28;20425;-63
2022/10/18 01:27:50;;;;;;;;;;;17.70;99.90;;;;;;5034208;28;19967;-62
2022/10/18 01:30:30;;;;;;;;;;;17.70;99.90;;;;;;5040188;28;19971;-62
2022/10/18 01:33:01;;;;;;;;;;;17.70;99.90;;;;;;5053755;28;20065;-63
2022/10/18 01:35:31;;;;;;;;;;;17.70;99.90;;;;;;5054005;28;20075;-63
2022/10/18 01:38:01;;;;;;;;;;;17.70;99.90;;;;;;5053843;28;20069;-63
2022/10/18 01:40:29;;;;;;;;;;;17.70;99.90;;;;;;5053660;28;19982;-63
2022/10/18 01:42:57;;;;;;;;;;;17.70;99.90;;;;;;5053946;28;20006;-63
2022/10/18 01:45:26;;;;;;;;;;;17.70;99.90;;;;;;5053725;28;20471;-63
2022/10/18 01:47:54;;;;;;;;;;;17.60;99.90;;;;;;5052629;28;20069;-63
2022/10/18 01:50:28;;;;;;;;;;;17.50;99.90;;;;;;5053441;28;20065;-63
2022/10/18 01:52:56;;;;;;;;;;;17.50;99.90;;;;;;5042761;28;20069;-62
2022/10/18 01:55:26;;;;;;;;;;;17.50;99.90;;;;;;5033704;28;20071;-63
2022/10/18 01:57:58;;;;;;;;;;;17.50;99.90;;;;;;5032930;28;19974;-63
2022/10/18 02:00:31;;;;;;;;;;;17.50;99.90;;;;;;5033374;28;20414;-63
2022/10/18 02:03:02;;;;;;;;;;;17.60;99.90;;;;;;5033391;28;19971;-63
2022/10/18 02:05:33;;;;;;;;;;;17.60;99.90;;;;;;5034119;28;20010;-63
2022/10/18 02:08:04;;;;;;;;;;;17.60;99.90;;;;;;5033071;28;19967;-64
2022/10/18 02:10:50;;;;;;;;;;;17.60;99.90;;;;;;5033172;28;20058;-64
2022/10/18 02:13:19;;;;;;;;;;;17.60;99.90;;;;;;5033350;28;19967;-63
2022/10/18 02:15:51;;;;;;;;;;;17.70;99.90;;;;;;5033338;28;19967;-63
2022/10/18 02:18:22;;;;;;;;;;;17.70;99.90;;;;;;5033093;28;19971;-64
2022/10/18 02:20:51;;;;;;;;;;;17.70;99.90;;;;;;5033503;28;20489;-64
2022/10/18 02:23:21;;;;;;;;;;;17.60;99.90;;;;;;5032625;28;19971;-64
2022/10/18 02:25:48;;;;;;;;;;;17.40;99.90;;;;;;5033080;28;20443;-64
2022/10/18 02:28:16;;;;;;;;;;;17.40;99.90;;;;;;5032975;28;19978;-63
2022/10/18 02:30:47;;;;;;;;;;;17.40;99.90;;;;;;5032682;28;19971;-63
2022/10/18 02:33:17;;;;;;;;;;;17.30;99.90;;;;;;5032886;28;20329;-63
2022/10/18 02:35:47;;;;;;;;;;;17.20;99.90;;;;;;5032979;28;19975;-63
2022/10/18 02:38:15;;;;;;;;;;;17.20;99.90;;;;;;5033460;28;20410;-63
2022/10/18 02:40:43;;;;;;;;;;;17.10;99.90;;;;;;5032622;28;20359;-63
2022/10/18 02:43:10;;;;;;;;;;;17.10;99.90;;;;;;5036682;28;20452;-63
2022/10/18 02:45:38;;;;;;;;;;;17.20;99.90;;;;;;5052805;28;20538;-63
2022/10/18 02:48:06;;;;;;;;;;;17.20;99.90;;;;;;5052729;28;19971;-63
2022/10/18 02:50:35;;;;;;;;;;;17.20;99.90;;;;;;5052664;28;19967;-63
2022/10/18 02:53:03;;;;;;;;;;;17.20;99.90;;;;;;5041096;28;19973;-63
2022/10/18 02:55:30;;;;;;;;;;;17.20;99.90;;;;;;5033428;28;20067;-63
2022/10/18 02:57:58;;;;;;;;;;;17.30;99.90;;;;;;5032418;28;19967;-63
2022/10/18 03:00:26;;;;;;;;;;;17.30;99.90;;;;;;5032487;28;19967;-63
2022/10/18 03:02:54;;;;;;;;;;;17.30;99.90;;;;;;5032535;28;19973;-63
2022/10/18 03:05:21;;;;;;;;;;;17.30;99.90;;;;;;5032812;28;19973;-63
2022/10/18 03:07:50;;;;;;;;;;;17.30;99.90;;;;;;5032455;28;19967;-63
2022/10/18 03:10:18;;;;;;;;;;;17.30;99.90;;;;;;5031604;28;20568;-63
2022/10/18 03:12:46;;;;;;;;;;;17.20;99.90;;;;;;5033179;28;19978;-63
2022/10/18 03:15:13;;;;;;;;;;;17.20;99.90;;;;;;5032644;28;19967;-63
2022/10/18 03:17:41;;;;;;;;;;;17.20;99.90;;;;;;5032166;28;19968;-62
2022/10/18 03:20:09;;;;;;;;;;;17.20;99.90;;;;;;5032074;28;19968;-62
2022/10/18 03:22:37;;;;;;;;;;;17.10;99.90;;;;;;5031625;28;20505;-62
2022/10/18 03:25:06;;;;;;;;;;;17.10;99.90;;;;;;5032113;28;19967;-62
2022/10/18 03:27:34;;;;;;;;;;;17.10;99.90;;;;;;5031935;28;19971;-62
2022/10/18 03:30:02;;;;;;;;;;;17.20;99.90;;;;;;5032436;28;19974;-63
2022/10/18 03:32:29;;;;;;;;;;;17.00;99.90;;;;;;5031930;28;20199;-63
2022/10/18 03:34:58;;;;;;;;;;;16.90;99.90;;;;;;5031890;28;19981;-63
2022/10/18 03:37:25;;;;;;;;;;;16.90;99.90;;;;;;5031880;28;20431;-62
2022/10/18 03:39:53;;;;;;;;;;;16.90;99.90;;;;;;5031790;28;20352;-63
2022/10/18 03:42:22;;;;;;;;;;;16.90;99.90;;;;;;5031864;28;20447;-62
2022/10/18 03:44:50;;;;;;;;;;;17.00;99.90;;;;;;5031875;28;19971;-62
2022/10/18 03:47:18;;;;;;;;;;;17.00;99.90;;;;;;5032183;28;19974;-63
2022/10/18 03:49:45;;;;;;;;;;;16.90;99.90;;;;;;5031580;28;19968;-63
2022/10/18 03:52:13;;;;;;;;;;;17.00;99.90;;;;;;5036710;28;19963;-63
2022/10/18 03:54:41;;;;;;;;;;;17.00;99.90;;;;;;5051872;28;19970;-63
2022/10/18 03:57:08;;;;;;;;;;;17.00;99.90;;;;;;5051634;28;19967;-63
2022/10/18 03:59:38;;;;;;;;;;;17.00;99.90;;;;;;5051376;28;20439;-64
2022/10/18 04:02:05;;;;;;;;;;;16.90;99.90;;;;;;5051545;28;19978;-62
2022/10/18 04:04:33;;;;;;;;;;;16.90;99.90;;;;;;5034733;28;19967;-62
2022/10/18 04:07:01;;;;;;;;;;;16.80;99.90;;;;;;5047252;28;19967;-63
2022/10/18 04:09:28;;;;;;;;;;;16.70;99.90;;;;;;5051832;28;19990;-63
2022/10/18 04:11:56;;;;;;;;;;;16.60;99.90;;;;;;5052054;28;20018;-62
2022/10/18 04:14:24;;;;;;;;;;;16.70;99.90;;;;;;5051591;28;19967;-62
2022/10/18 04:16:53;;;;;;;;;;;16.70;99.90;;;;;;5051270;28;19973;-62
2022/10/18 04:19:20;;;;;;;;;;;16.70;99.90;;;;;;5051093;28;19967;-63
2022/10/18 04:21:48;;;;;;;;;;;16.70;99.90;;;;;;5036874;28;19978;-63
2022/10/18 04:24:16;;;;;;;;;;;16.70;99.90;;;;;;5045452;28;19967;-61
2022/10/18 04:26:44;;;;;;;;;;;16.70;99.90;;;;;;5046267;28;19963;-63
2022/10/18 04:29:12;;;;;;;;;;;16.80;99.90;;;;;;5045546;28;19989;-63
2022/10/18 04:31:39;;;;;;;;;;;16.80;99.90;;;;;;5045657;28;19986;-62
2022/10/18 04:34:08;;;;;;;;;;;16.90;99.90;;;;;;5046231;28;19981;-62
2022/10/18 04:36:36;;;;;;;;;;;16.90;99.90;;;;;;5045810;28;19978;-62
2022/10/18 04:39:04;;;;;;;;;;;16.90;99.90;;;;;;5044694;28;21326;-62
2022/10/18 04:41:32;;;;;;;;;;;16.90;99.90;;;;;;5045708;28;19974;-62
2022/10/18 04:43:59;;;;;;;;;;;16.90;99.90;;;;;;5046527;28;19976;-63
2022/10/18 04:46:27;;;;;;;;;;;17.00;99.90;;;;;;5046194;28;20443;-62
2022/10/18 04:48:55;;;;;;;;;;;17.00;99.90;;;;;;5044095;28;20482;-62
2022/10/18 04:51:24;;;;;;;;;;;17.00;99.90;;;;;;5044986;28;19975;-62
2022/10/18 04:53:51;;;;;;;;;;;16.90;99.90;;;;;;5044908;28;19981;-62
2022/10/18 04:56:19;;;;;;;;;;;16.90;99.90;;;;;;5046101;28;19972;-63
2022/10/18 04:58:47;;;;;;;;;;;16.90;99.90;;;;;;5043272;28;20355;-63
2022/10/18 05:01:15;;;;;;;;;;;16.90;99.90;;;;;;5045658;28;19978;-62
2022/10/18 05:03:43;;;;;;;;;;;16.90;99.90;;;;;;5046335;28;19974;-63
2022/10/18 05:06:11;;;;;;;;;;;16.90;99.90;;;;;;5046662;28;19972;-63
2022/10/18 05:08:40;;;;;;;;;;;16.90;99.90;;;;;;5044926;28;21085;-63
2022/10/18 05:11:08;;;;;;;;;;;16.90;99.90;;;;;;5045539;28;20038;-63
2022/10/18 05:13:37;;;;;;;;;;;16.90;99.90;;;;;;5045679;28;20025;-63
2022/10/18 05:16:04;;;;;;;;;;;16.90;99.90;;;;;;5045600;28;20797;-63
2022/10/18 05:18:32;;;;;;;;;;;16.80;99.90;;;;;;5044089;28;19982;-63
2022/10/18 05:21:00;;;;;;;;;;;16.80;99.90;;;;;;5045592;28;20742;-63
2022/10/18 05:23:28;;;;;;;;;;;16.80;99.90;;;;;;5045284;28;20448;-63
2022/10/18 05:26:00;;;;;;;;;;;16.80;99.90;;;;;;5046500;28;20360;-63
2022/10/18 05:28:28;;;;;;;;;;;16.80;99.90;;;;;;5044026;28;20032;-63
2022/10/18 05:31:11;;;;;;;;;;;16.80;99.90;;;;;;5046077;28;19976;-63
2022/10/18 05:33:39;;;;;;;;;;;16.80;99.90;;;;;;5054886;28;20001;-63
2022/10/18 05:36:07;;;;;;;;;;;16.80;99.90;;;;;;5058171;28;19986;-63
2022/10/18 05:38:37;;;;;;;;;;;16.90;99.90;;;;;;5050680;28;20551;-63
2022/10/18 05:41:07;;;;;;;;;;;16.90;99.90;;;;;;5057151;28;19985;-63
2022/10/18 05:43:34;;;;;;;;;;;16.90;99.90;;;;;;5059157;28;19986;-63
2022/10/18 05:46:03;;;;;;;;;;;16.90;99.90;;;;;;5056106;28;19974;-63
2022/10/18 05:48:30;;;;;;;;;;;16.90;99.90;;;;;;5052660;28;19975;-62
2022/10/18 05:50:59;;;;;;;;;;;16.90;99.90;;;;;;5051988;28;19974;-63
2022/10/18 05:53:26;;;;;;;;;;;16.80;99.90;;;;;;5052712;28;19974;-62
2022/10/18 05:56:11;;;;;;;;;;;16.80;99.90;;;;;;5055766;28;20556;-62
2022/10/18 05:58:39;;;;;;;;;;;16.80;99.90;;;;;;5050523;28;19983;-63
2022/10/18 06:01:08;;;;;;;;;;;16.70;99.90;;;;;;5056569;28;19970;-62
2022/10/18 06:03:36;;;;;;;;;;;16.70;99.90;;;;;;5051801;28;19976;-62
2022/10/18 06:06:04;;;;;;;;;;;16.80;99.90;;;;;;5052242;28;19975;-63
2022/10/18 06:08:32;;;;;;;;;;;16.80;99.90;;;;;;5050292;28;19996;-63
2022/10/18 06:11:00;;;;;;;;;;;16.80;99.90;;;;;;5054944;28;20077;-63
2022/10/18 06:13:29;;;;;;;;;;;16.90;99.90;;;;;;5053108;28;19981;-63
2022/10/18 06:16:00;;;;;;;;;;;16.90;99.90;;;;;;5049740;28;19975;-63
2022/10/18 06:18:28;;;;;;;;;;;17.00;99.90;;;;;;5054702;28;20829;-64
2022/10/18 06:20:57;;;;;;;;;;;17.00;99.90;;;;;;5050818;28;19975;-63
2022/10/18 06:23:25;;;;;;;;;;;16.90;99.90;;;;;;5056448;28;19990;-63
2022/10/18 06:25:53;;;;;;;;;;;17.00;99.90;;;;;;5056959;28;20462;-63
2022/10/18 06:28:20;;;;;;;;;;;17.00;99.90;;;;;;5052115;28;20363;-64
2022/10/18 06:30:49;;;;;;;;;;;17.00;99.90;;;;;;5052633;28;20024;-65
2022/10/18 06:33:17;;;;;;;;;;;17.00;99.90;;;;;;5046123;28;19967;-63
2022/10/18 06:35:53;;;;;;;;;;;17.00;99.90;;;;;;5086421;22;19969;-72
2022/10/18 06:38:21;;;;;;;;;;;17.00;99.90;;;;;;5071438;28;19967;-72
2022/10/18 06:40:49;;;;;;;;;;;17.00;99.90;;;;;;5072428;28;20432;-72
2022/10/18 06:43:16;;;;;;;;;;;17.00;99.90;;;;;;5071980;28;20028;-72
2022/10/18 06:45:49;;;;;;;;;;;17.00;99.90;;;;;;5072387;28;20020;-72
2022/10/18 06:48:17;;;;;;;;;;;17.00;99.90;;;;;;5072779;28;20300;-72
2022/10/18 06:50:50;;;;;;;;;;;17.00;99.90;;;;;;5072210;28;20099;-72
2022/10/18 06:53:18;;;;;;;;;;;16.90;99.90;;;;;;5072180;28;20443;-72
2022/10/18 06:55:46;;;;;;;;;;;16.90;99.90;;;;;;5072341;28;19967;-72
2022/10/18 06:58:14;;;;;;;;;;;17.00;99.90;;;;;;5072299;28;19971;-72
2022/10/18 07:00:41;;;;;;;;;;;17.00;99.90;;;;;;5072185;28;19967;-72
2022/10/18 07:03:10;;;;;;;;;;;17.10;99.90;;;;;;5072153;28;19973;-72
2022/10/18 07:05:38;;;;;;;;;;;17.10;99.90;;;;;;5072364;28;19974;-72
2022/10/18 07:08:06;;;;;;;;;;;17.10;99.90;;;;;;5072284;28;19966;-72
2022/10/18 07:10:34;;;;;;;;;;;17.10;99.90;;;;;;5071886;28;19967;-72
2022/10/18 07:13:01;;;;;;;;;;;17.20;99.90;;;;;;5072052;28;19970;-72
2022/10/18 07:15:49;;;;;;;;;;;17.20;99.90;;;;;;5072165;28;19972;-72
2022/10/18 07:18:18;;;;;;;;;;;17.20;99.90;;;;;;5072173;28;20435;-72
2022/10/18 07:20:46;;;;;;;;;;;17.30;99.90;;;;;;5071974;28;19966;-72
2022/10/18 07:23:13;;;;;;;;;;;17.40;99.90;;;;;;5071956;28;19966;-72
2022/10/18 07:25:41;;;;;;;;;;;17.40;99.90;;;;;;5072074;28;19967;-72
2022/10/18 07:28:09;;;;;;;;;;;17.50;99.90;;;;;;5072242;28;19974;-72
2022/10/18 07:30:37;;;;;;;;;;;17.50;99.90;;;;;;5071880;28;19967;-72
2022/10/18 07:33:04;;;;;;;;;;;17.50;99.90;;;;;;5071989;28;19971;-72
2022/10/18 07:35:33;;;;;;;;;;;17.50;99.90;;;;;;5071636;28;19974;-72
2022/10/18 07:38:01;;;;;;;;;;;17.60;99.90;;;;;;5071474;28;19973;-72
2022/10/18 07:40:29;;;;;;;;;;;17.60;99.90;;;;;;5071622;28;19971;-73
2022/10/18 07:42:56;;;;;;;;;;;17.60;99.90;;;;;;5071918;28;19967;-72
2022/10/18 07:45:28;;;;;;;;;;;17.60;99.90;;;;;;5071748;28;19966;-72
2022/10/18 07:47:56;;;;;;;;;;;17.60;99.90;;;;;;5071529;28;19970;-72
2022/10/18 07:50:23;;;;;;;;;;;17.60;99.90;;;;;;5071490;28;19967;-72
2022/10/18 07:52:52;;;;;;;;;;;17.70;99.90;;;;;;5071876;28;19967;-72
2022/10/18 07:55:20;;;;;;;;;;;17.60;99.90;;;;;;5071666;28;19967;-72
2022/10/18 07:57:48;;;;;;;;;;;17.60;99.90;;;;;;5075514;28;20423;-71
2022/10/18 08:00:16;;;;;;;;;;;17.60;99.90;;;;;;5075312;28;19970;-72
2022/10/18 08:02:43;;;;;;;;;;;17.60;99.90;;;;;;5075666;28;19973;-72
2022/10/18 08:05:11;;;;;;;;;;;17.70;99.90;;;;;;5075714;28;19973;-72
2022/10/18 08:07:39;;;;;;;;;;;17.80;99.90;;;;;;5075442;28;20047;-72
2022/10/18 08:10:08;;;;;;;;;;;17.80;99.90;;;;;;5075145;28;20060;-72
2022/10/18 08:12:36;;;;;;;;;;;17.90;99.90;;;;;;5075592;28;19967;-72
2022/10/18 08:15:04;;;;;;;;;;;17.90;99.90;;;;;;5075253;28;19967;-72
2022/10/18 08:17:32;;;;;;;;;;;18.00;99.90;;;;;;5075297;28;20049;-72
2022/10/18 08:20:00;;;;;;;;;;;18.00;99.90;;;;;;5075015;28;19970;-72
2022/10/18 08:22:39;;;;;;;;;;;18.00;99.90;;;;;;5075363;28;20332;-72
2022/10/18 08:25:08;;;;;;;;;;;18.00;99.90;;;;;;5075160;28;19966;-72
2022/10/18 08:27:36;;;;;;;;;;;18.00;99.90;;;;;;5075424;28;20061;-72
2022/10/18 08:30:04;;;;;;;;;;;18.00;99.90;;;;;;5074510;28;20037;-72
2022/10/18 08:32:32;;;;;;;;;;;18.00;99.90;;;;;;5075105;28;19978;-72
2022/10/18 08:35:00;;;;;;;;;;;18.00;99.90;;;;;;5074841;28;20057;-72
2022/10/18 08:37:33;;;;;;;;;;;17.90;99.90;;;;;;5074669;28;19974;-72
2022/10/18 08:40:01;;;;;;;;;;;17.90;99.90;;;;;;5074690;28;19970;-72
2022/10/18 08:42:41;;;;;;;;;;;17.90;99.90;;;;;;5074896;28;20422;-73
2022/10/18 08:45:10;;;;;;;;;;;17.90;99.90;;;;;;5074995;28;19977;-72
2022/10/18 08:47:56;;;;;;;;;;;17.90;99.90;;;;;;5074766;28;20076;-72
2022/10/18 08:50:26;;;;;;;;;;;17.80;99.90;;;;;;5074353;28;20061;-72
2022/10/18 08:53:00;;;;;;;;;;;17.80;99.90;;;;;;5074851;28;19966;-72
2022/10/18 08:55:35;;;;;;;;;;;17.80;99.90;;;;;;5074617;28;20069;-72
2022/10/18 08:58:04;;;;;;;;;;;17.80;99.90;;;;;;5074778;28;19974;-71
2022/10/18 09:00:36;;;;;;;;;;;17.80;99.90;;;;;;5074168;28;20420;-72
2022/10/18 09:03:12;;;;;;;;;;;17.80;99.90;;;;;;5074622;28;19974;-71
2022/10/18 09:05:45;;;;;;;;;;;17.80;99.90;;;;;;5074389;28;20057;-70
2022/10/18 09:08:45;;;;;;;;;;;17.90;99.90;;;;;;5073356;28;19967;-71
2022/10/18 09:11:24;;;;;;;;;;;17.90;99.90;;;;;;5012009;28;20444;-71
2022/10/18 09:14:03;;;;;;;;;;;18.00;99.90;;;;;;5012071;28;19971;-72
2022/10/18 09:16:38;;;;;;;;;;;18.00;99.90;;;;;;5049782;28;20355;-71
2022/10/18 09:19:11;;;;;;;;;;;18.10;99.90;;;;;;5074216;28;19973;-71
2022/10/18 09:21:42;;;;;;;;;;;18.10;99.90;;;;;;5074004;28;19966;-71
2022/10/18 09:24:11;;;;;;;;;;;18.10;99.90;;;;;;5074173;28;20005;-71
2022/10/18 09:26:43;;;;;;;;;;;18.20;99.90;;;;;;5073956;28;20017;-71
2022/10/18 09:29:18;;;;;;;;;;;18.10;99.90;;;;;;5074139;28;20439;-72
2022/10/18 09:31:55;;;;;;;;;;;18.20;99.90;;;;;;5073824;28;19970;-71
2022/10/18 09:34:25;;;;;;;;;;;18.30;99.90;;;;;;5073436;28;19967;-71
2022/10/18 09:36:53;;;;;;;;;;;18.30;99.90;;;;;;5074170;28;19986;-71
2022/10/18 09:39:23;;;;;;;;;;;18.30;99.90;;;;;;5073519;28;19970;-71
2022/10/18 09:41:53;;;;;;;;;;;18.20;99.90;;;;;;5073785;28;20346;-71
2022/10/18 09:44:23;;;;;;;;;;;18.20;99.90;;;;;;5073538;28;19966;-71
2022/10/18 09:46:53;;;;;;;;;;;18.30;99.90;;;;;;5073732;28;20051;-71
2022/10/18 09:49:23;;;;;;;;;;;18.30;99.90;;;;;;5073884;28;19971;-71
2022/10/18 09:51:51;;;;;;;;;;;18.30;99.90;;;;;;5073188;28;19981;-71
2022/10/18 09:54:21;;;;;;;;;;;18.40;99.90;;;;;;5073813;28;19970;-71
2022/10/18 09:56:50;;;;;;;;;;;18.60;99.90;;;;;;5073836;28;20073;-71
2022/10/18 09:59:31;;;;;;;;;;;18.80;99.90;;;;;;5073518;28;20451;-71
2022/10/18 10:01:58;;;;;;;;;;;18.80;99.90;;;;;;5073320;28;19973;-71
2022/10/18 10:04:26;;;;;;;;;;;18.90;99.90;;;;;;5073055;28;20069;-71
2022/10/18 10:06:55;;;;;;;;;;;19.10;99.90;;;;;;5073299;28;20005;-71
2022/10/18 10:09:26;;;;;;;;;;;19.20;99.90;;;;;;5073264;28;19967;-71
2022/10/18 10:11:54;;;;;;;;;;;19.20;99.90;;;;;;5072904;28;20087;-71
2022/10/18 10:14:25;;;;;;;;;;;19.40;99.90;;;;;;5073035;28;20020;-71
2022/10/18 10:16:54;;;;;;;;;;;19.30;99.90;;;;;;5073127;28;19998;-71
2022/10/18 10:19:23;;;;;;;;;;;19.40;99.90;;;;;;5072575;28;20020;-71
2022/10/18 10:21:53;;;;;;;;;;;19.50;99.90;;;;;;5072692;28;19973;-71
2022/10/18 10:24:33;;;;;;;;;;;19.60;99.90;;;;;;5072788;28;19966;-71
2022/10/18 10:27:05;;;;;;;;;;;19.80;99.90;;;;;;5072950;28;19966;-72
2022/10/18 10:29:52;;;;;;;;;;;20.00;99.90;;;;;;5072331;28;20462;-72
2022/10/18 10:32:22;;;;;;;;;;;20.20;99.90;;;;;;5072877;28;20021;-72
2022/10/18 10:34:50;;;;;;;;;;;20.20;99.90;;;;;;5072505;28;19992;-71
2022/10/18 10:37:28;;;;;;;;;;;20.20;99.90;;;;;;5072609;28;19970;-69
2022/10/18 10:40:09;;;;;;;;;;;20.10;99.90;;;;;;5072291;28;20080;-72
2022/10/18 10:42:52;;;;;;;;;;;20.00;99.90;;;;;;5072580;28;20057;-74
2022/10/18 10:45:36;;;;;;;;;;;20.00;99.90;;;;;;5072754;28;19970;-72
2022/10/18 10:48:15;;;;;;;;;;;19.90;99.90;;;;;;5072587;28;19974;-72
2022/10/18 10:50:50;;;;;;;;;;;20.00;99.90;;;;;;5072176;28;20351;-71
2022/10/18 10:53:34;;;;;;;;;;;20.10;99.90;;;;;;5072481;28;19967;-72
2022/10/18 10:56:03;;;;;;;;;;;20.30;99.90;;;;;;5072254;28;20063;-71
2022/10/18 10:58:34;;;;;;;;;;;20.40;99.90;;;;;;5072416;28;19970;-71
2022/10/18 11:01:16;;;;;;;;;;;20.30;99.90;;;;;;5071960;28;19966;-71
2022/10/18 11:03:47;;;;;;;;;;;20.50;99.90;;;;;;5072501;28;20339;-71
2022/10/18 11:06:30;;;;;;;;;;;20.70;99.90;;;;;;5072243;28;19967;-72
2022/10/18 11:08:58;;;;;;;;;;;20.90;99.90;;;;;;5069712;28;20447;-71
2022/10/18 11:11:29;;;;;;;;;;;21.00;99.90;;;;;;5072014;28;19994;-72
2022/10/18 11:13:59;;;;;;;;;;;21.00;99.90;;;;;;5072268;28;20055;-72
2022/10/18 11:16:51;;;;;;;;;;;20.90;99.90;;;;;;5072237;28;19975;-72
2022/10/18 11:19:37;;;;;;;;;;;20.80;99.90;;;;;;5072012;28;19975;-71
2022/10/18 11:22:09;;;;;;;;;;;20.60;99.90;;;;;;5072136;28;19967;-72
2022/10/18 11:24:37;;;;;;;;;;;20.50;99.90;;;;;;5071924;28;20054;-72
2022/10/18 11:27:06;;;;;;;;;;;20.50;99.90;;;;;;5072046;28;20350;-71
2022/10/18 11:29:41;;;;;;;;;;;20.40;99.90;;;;;;5071546;28;20431;-72
2022/10/18 11:32:14;;;;;;;;;;;20.40;99.90;;;;;;5071046;28;20358;-73
2022/10/18 11:34:48;;;;;;;;;;;20.20;99.90;;;;;;5071669;28;19967;-72
2022/10/18 11:37:27;;;;;;;;;;;20.10;99.90;;;;;;5072034;28;19989;-72
2022/10/18 11:40:07;;;;;;;;;;;20.10;99.90;;;;;;5071453;28;19968;-71
2022/10/18 11:42:41;;;;;;;;;;;20.10;99.90;;;;;;5071678;28;19973;-72
2022/10/18 11:45:19;;;;;;;;;;;20.00;99.90;;;;;;5071875;28;19970;-72
2022/10/18 11:47:50;;;;;;;;;;;20.00;99.90;;;;;;5071615;28;19966;-72
2022/10/18 11:50:25;;;;;;;;;;;20.00;99.90;;;;;;5071646;28;19967;-72
2022/10/18 11:53:00;;;;;;;;;;;20.10;99.90;;;;;;5071757;28;20065;-72
2022/10/18 11:55:36;;;;;;;;;;;20.10;99.90;;;;;;5071576;28;20449;-72
2022/10/18 11:58:10;;;;;;;;;;;20.20;99.90;;;;;;5071742;28;20002;-72
2022/10/18 12:00:43;;;;;;;;;;;20.20;99.90;;;;;;5071610;28;19966;-71
2022/10/18 12:03:15;;;;;;;;;;;20.50;99.90;;;;;;5071778;28;19971;-72
2022/10/18 12:05:44;;;;;;;;;;;20.90;99.90;;;;;;5071535;28;20065;-71
2022/10/18 12:08:14;;;;;;;;;;;21.30;99.90;;;;;;5071511;28;19973;-72
2022/10/18 12:10:44;;;;;;;;;;;21.60;99.90;;;;;;5071322;28;19966;-72
2022/10/18 12:13:34;;;;;;;;;;;21.60;99.90;;;;;;5071533;28;19971;-71
2022/10/18 12:16:03;;;;;;;;;;;21.50;99.90;;;;;;5071491;28;20380;-72
2022/10/18 12:18:31;;;;;;;;;;;21.50;99.90;;;;;;5071435;28;19970;-71
2022/10/18 12:20:59;;;;;;;;;;;21.40;99.90;;;;;;5071319;28;20334;-72
2022/10/18 12:23:34;;;;;;;;;;;21.20;99.90;;;;;;5071454;28;19973;-72
2022/10/18 12:26:03;;;;;;;;;;;21.10;99.90;;;;;;5071263;28;19973;-72
2022/10/18 12:28:33;;;;;;;;;;;21.00;99.90;;;;;;5071513;28;19979;-71
2022/10/18 12:31:05;;;;;;;;;;;20.90;99.90;;;;;;5071387;28;20070;-72
2022/10/18 12:33:35;;;;;;;;;;;20.90;99.90;;;;;;5071182;28;20062;-71
2022/10/18 12:36:14;;;;;;;;;;;20.90;99.90;;;;;;5033026;22;20088;-63
2022/10/18 12:38:45;;;;;;;;;;;20.70;99.90;;;;;;4980356;28;19974;-63
2022/10/18 12:41:17;;;;;;;;;;;20.80;99.90;;;;;;4989273;28;19976;-63
2022/10/18 12:43:50;;;;;;;;;;;20.70;99.90;;;;;;4992352;28;19974;-65
2022/10/18 12:46:18;;;;;;;;;;;20.80;99.90;;;;;;4992589;28;20456;-63
2022/10/18 12:48:50;;;;;;;;;;;20.70;99.90;;;;;;4992609;28;20055;-63
2022/10/18 12:51:18;;;;;;;;;;;20.60;99.90;;;;;;4992248;28;20071;-63
2022/10/18 12:53:49;;;;;;;;;;;20.60;99.90;;;;;;4992409;28;20067;-63
2022/10/18 12:56:35;;;;;;;;;;;20.70;99.90;;;;;;4992656;28;19978;-63
2022/10/18 12:59:25;;;;;;;;;;;20.70;99.90;;;;;;4992446;28;19974;-63
2022/10/18 13:02:09;;;;;;;;;;;20.70;99.90;;;;;;4992102;28;20010;-63
2022/10/18 13:04:37;;;;;;;;;;;21.40;99.90;;;;;;4992087;28;19982;-63
2022/10/18 13:07:12;;;;;;;;;;;22.40;99.90;;;;;;4992175;28;19968;-63
2022/10/18 13:09:43;;;;;;;;;;;23.50;99.90;;;;;;4991827;28;19974;-65
2022/10/18 13:12:38;;;;;;;;;;;24.40;99.90;;;;;;4991849;28;20069;-64
2022/10/18 13:15:17;;;;;;;;;;;24.90;99.90;;;;;;5003652;28;20319;-64
2022/10/18 13:17:55;;;;;;;;;;;25.50;99.90;;;;;;4992208;28;19976;-63
2022/10/18 13:20:26;;;;;;;;;;;24.70;99.90;;;;;;4991924;28;19976;-63
2022/10/18 13:23:02;;;;;;;;;;;23.70;99.90;;;;;;4992164;28;19981;-63
2022/10/18 13:25:36;;;;;;;;;;;22.60;99.90;;;;;;4992090;28;20400;-63
2022/10/18 13:28:17;;;;;;;;;;;21.90;99.90;;;;;;4991965;28;20066;-63
2022/10/18 13:30:51;;;;;;;;;;;21.50;99.90;;;;;;4991816;28;19975;-63
2022/10/18 13:33:27;;;;;;;;;;;21.20;99.90;;;;;;4991816;28;20068;-64
2022/10/18 13:35:56;;;;;;;;;;;20.90;99.90;;;;;;4991669;28;19976;-63
2022/10/18 13:38:31;;;;;;;;;;;20.70;99.90;;;;;;4991409;28;20062;-63
2022/10/18 13:41:04;;;;;;;;;;;20.60;99.90;;;;;;4991719;28;19994;-63
2022/10/18 13:44:02;;;;;;;;;;;20.70;99.90;;;;;;4991736;28;19968;-63
2022/10/18 13:46:45;;;;;;;;;;;20.60;99.90;;;;;;5011977;28;20062;-64
2022/10/18 13:49:23;;;;;;;;;;;20.70;99.90;;;;;;4982155;28;19978;-63
2022/10/18 13:51:57;;;;;;;;;;;20.70;99.90;;;;;;4991328;28;19972;-63
2022/10/18 13:54:36;;;;;;;;;;;20.70;99.90;;;;;;4990902;28;19969;-63
2022/10/18 13:57:16;;;;;;;;;;;20.80;99.90;;;;;;4991717;28;20424;-63
2022/10/18 14:00:02;;;;;;;;;;;21.10;99.90;;;;;;4991825;28;19967;-63
2022/10/18 14:02:42;;;;;;;;;;;21.30;99.90;;;;;;4991422;28;20406;-63
2022/10/18 14:05:34;;;;;;;;;;;21.40;99.90;;;;;;4991555;28;20013;-63
2022/10/18 14:08:03;;;;;;;;;;;21.30;99.90;;;;;;4991346;28;19969;-63
2022/10/18 14:10:40;;;;;;;;;;;21.20;99.90;;;;;;4990883;28;20067;-63
2022/10/18 14:13:31;;;;;;;;;;;21.20;99.90;;;;;;4991346;28;19994;-63
2022/10/18 14:16:03;;;;;;;;;;;21.10;99.90;;;;;;4991452;28;19979;-63
2022/10/18 14:18:32;;;;;;;;;;;20.90;99.90;;;;;;4991321;28;19968;-64
2022/10/18 14:21:03;;;;;;;;;;;20.80;99.90;;;;;;4990728;28;19999;-63
2022/10/18 14:23:50;;;;;;;;;;;20.80;99.90;;;;;;4991172;28;20132;-63
2022/10/18 14:26:19;;;;;;;;;;;20.70;99.90;;;;;;4991253;28;19973;-64
2022/10/18 14:29:01;;;;;;;;;;;20.70;99.90;;;;;;4991189;28;19968;-63
2022/10/18 14:31:29;;;;;;;;;;;20.70;99.90;;;;;;4990663;28;19979;-63
2022/10/18 14:33:57;;;;;;;;;;;20.70;99.90;;;;;;4990945;28;19972;-63
2022/10/18 14:36:26;;;;;;;;;;;20.70;99.90;;;;;;4990573;28;19975;-63
2022/10/18 14:38:55;;;;;;;;;;;20.70;99.90;;;;;;4990295;28;20432;-63